Time,TemperatureF,DewpointF,PressureIn,WindDirection,WindDirectionDegrees,WindSpeedMPH,WindSpeedGustMPH,Humidity,HourlyPrecipIn,Conditions,Clouds,dailyrainin,SoftwareType,DateUTC
2013-04-15 00:04:00,65.3,43.4,27.37,SSW,198,0.0,3.1,45,0.00,,---,0.00,VWS V13.01,2013-04-15 07:04:00,
2013-04-15 00:41:00,64.9,43.1,27.46,SSW,199,3.6,5.4,45,0.00,,---,0.00,VWS V13.01,2013-04-15 07:41:00,
2013-04-15 00:43:00,64.9,43.1,27.46,South,177,4.9,6.3,45,0.00,,---,0.00,VWS V13.01,2013-04-15 07:43:00,
2013-04-15 00:47:00,64.9,42.5,27.46,SSW,202,0.0,7.6,44,0.00,,---,0.00,VWS V13.01,2013-04-15 07:47:00,
2013-04-15 00:48:00,64.9,42.5,27.46,South,169,2.7,7.6,44,0.00,,---,0.00,VWS V13.01,2013-04-15 07:48:00,
2013-04-15 00:49:00,64.9,43.1,27.46,WSW,241,4.0,4.0,45,0.00,,---,0.00,VWS V13.01,2013-04-15 07:49:00,
2013-04-15 00:54:00,64.8,42.4,27.46,SSW,199,5.4,6.3,44,0.00,,---,0.00,VWS V13.01,2013-04-15 07:54:00,
2013-04-15 01:00:00,64.8,41.8,27.46,South,187,0.0,7.2,43,0.00,,---,0.00,VWS V13.01,2013-04-15 08:00:00,
2013-04-15 01:05:00,64.8,42.4,27.52,SSW,196,4.0,11.0,44,0.00,,---,0.00,VWS V13.01,2013-04-15 08:05:00,
2013-04-15 01:11:00,64.8,41.8,27.52,SSE,165,9.6,11.4,43,0.00,,---,0.00,VWS V13.01,2013-04-15 08:11:00,
2013-04-15 01:16:00,64.8,41.8,27.52,South,169,6.3,11.0,43,0.00,,---,0.00,VWS V13.01,2013-04-15 08:16:00,
2013-04-15 01:21:00,64.8,41.8,27.55,South,186,15.0,15.0,43,0.00,,---,0.00,VWS V13.01,2013-04-15 08:21:00,
2013-04-15 01:26:00,64.6,41.6,27.55,South,187,11.0,12.8,43,0.00,,---,0.00,VWS V13.01,2013-04-15 08:26:00,
2013-04-15 01:31:00,64.6,41.6,27.55,SSE,164,5.8,10.5,43,0.00,,---,0.00,VWS V13.01,2013-04-15 08:31:00,
2013-04-15 01:37:00,64.6,41.6,27.55,ESE,117,5.8,10.5,43,0.00,,---,0.00,VWS V13.01,2013-04-15 08:37:00,
2013-04-15 01:40:00,64.6,41.6,27.55,South,185,3.6,8.1,43,0.00,,---,0.00,VWS V13.01,2013-04-15 08:40:00,
2013-04-15 01:41:00,64.6,41.6,27.55,ESE,114,3.6,8.1,43,0.00,,---,0.00,VWS V13.01,2013-04-15 08:41:00,
2013-04-15 01:46:00,64.6,41.6,27.55,South,175,6.7,6.7,43,0.00,,---,0.00,VWS V13.01,2013-04-15 08:46:00,
2013-04-15 01:52:00,64.4,41.4,27.61,ESE,119,2.7,10.1,43,0.00,,---,0.00,VWS V13.01,2013-04-15 08:52:00,
2013-04-15 01:57:00,64.4,41.4,27.61,SE,139,3.6,6.3,43,0.00,,---,0.00,VWS V13.01,2013-04-15 08:57:00,
2013-04-15 02:02:00,64.4,42.0,27.61,SSE,150,4.9,8.3,44,0.00,,---,0.00,VWS V13.01,2013-04-15 09:02:00,
2013-04-15 02:08:00,64.4,41.4,27.67,ESE,110,4.9,8.1,43,0.00,,---,0.00,VWS V13.01,2013-04-15 09:08:00,
2013-04-15 02:13:00,64.4,42.0,27.67,SSW,193,6.3,7.6,44,0.00,,---,0.00,VWS V13.01,2013-04-15 09:13:00,
2013-04-15 02:18:00,64.4,41.4,27.67,South,189,5.4,8.7,43,0.00,,---,0.00,VWS V13.01,2013-04-15 09:18:00,
2013-04-15 02:23:00,64.2,41.3,27.70,South,178,5.4,5.8,43,0.00,,---,0.00,VWS V13.01,2013-04-15 09:23:00,
2013-04-15 02:29:00,64.2,41.3,27.70,SSW,192,3.1,3.1,43,0.00,,---,0.00,VWS V13.01,2013-04-15 09:29:00,
2013-04-15 02:34:00,64.2,40.7,27.70,SW,225,3.6,7.2,42,0.00,,---,0.00,VWS V13.01,2013-04-15 09:34:00,
2013-04-15 02:39:00,63.9,39.1,27.76,WNW,297,5.4,8.3,40,0.00,,---,0.00,VWS V13.01,2013-04-15 09:39:00,
2013-04-15 02:44:00,64.0,39.2,27.76,SW,232,4.0,6.3,40,0.00,,---,0.00,VWS V13.01,2013-04-15 09:44:00,
2013-04-15 02:49:00,64.0,39.9,27.76,WSW,239,0.0,7.6,41,0.00,,---,0.00,VWS V13.01,2013-04-15 09:49:00,
2013-04-15 02:55:00,64.0,40.5,27.79,SSW,205,3.6,7.2,42,0.00,,---,0.00,VWS V13.01,2013-04-15 09:55:00,
2013-04-15 03:00:00,63.9,39.7,27.79,South,182,8.7,8.7,41,0.00,,---,0.00,VWS V13.01,2013-04-15 10:00:00,
2013-04-15 03:05:00,63.9,41.0,27.85,SSW,194,3.1,7.6,43,0.00,,---,0.00,VWS V13.01,2013-04-15 10:05:00,
2013-04-15 03:10:00,63.9,41.5,27.85,SSW,203,0.0,4.9,44,0.00,,---,0.00,VWS V13.01,2013-04-15 10:10:00,
2013-04-15 03:15:00,63.7,40.8,27.85,SW,229,3.1,3.1,43,0.00,,---,0.00,VWS V13.01,2013-04-15 10:15:00,
2013-04-15 03:20:00,63.7,42.0,27.91,SSW,193,7.6,7.6,45,0.00,,---,0.00,VWS V13.01,2013-04-15 10:20:00,
2013-04-15 03:26:00,63.7,42.5,27.91,SSW,211,0.0,2.7,46,0.00,,---,0.00,VWS V13.01,2013-04-15 10:26:00,
2013-04-15 03:31:00,63.5,43.5,27.91,SSW,204,0.0,2.7,48,0.00,,---,0.00,VWS V13.01,2013-04-15 10:31:00,
2013-04-15 03:36:00,63.3,42.8,27.96,ESE,121,6.3,6.3,47,0.00,,---,0.00,VWS V13.01,2013-04-15 10:36:00,
2013-04-15 03:42:00,63.3,43.3,27.96,South,170,0.0,0.0,48,0.00,,---,0.00,VWS V13.01,2013-04-15 10:42:00,
2013-04-15 03:47:00,63.3,42.8,27.96,East,89,6.3,6.3,47,0.00,,---,0.00,VWS V13.01,2013-04-15 10:47:00,
2013-04-15 03:52:00,63.1,42.6,28.02,ESE,102,2.7,8.7,47,0.00,,---,0.00,VWS V13.01,2013-04-15 10:52:00,
2013-04-15 03:58:00,63.3,43.3,28.02,East,79,0.0,0.0,48,0.00,,---,0.00,VWS V13.01,2013-04-15 10:58:00,
2013-04-15 04:03:00,63.5,43.5,28.02,East,85,0.0,4.5,48,0.00,,---,0.00,VWS V13.01,2013-04-15 11:03:00,
2013-04-15 04:08:00,63.3,42.8,28.08,SSE,160,0.0,3.6,47,0.00,,---,0.00,VWS V13.01,2013-04-15 11:08:00,
2013-04-15 04:14:00,63.3,43.8,28.08,South,170,0.0,5.8,49,0.00,,---,0.00,VWS V13.01,2013-04-15 11:14:00,
2013-04-15 04:19:00,63.3,44.4,28.08,South,170,0.0,0.0,50,0.00,,---,0.00,VWS V13.01,2013-04-15 11:19:00,
2013-04-15 04:24:00,63.1,43.7,28.14,SSW,192,3.1,6.3,49,0.00,,---,0.00,VWS V13.01,2013-04-15 11:24:00,
2013-04-15 04:30:00,63.1,43.7,28.14,South,183,0.0,0.0,49,0.00,,---,0.00,VWS V13.01,2013-04-15 11:30:00,
2013-04-15 04:35:00,63.0,43.0,28.20,South,183,0.0,0.0,48,0.00,,---,0.00,VWS V13.01,2013-04-15 11:35:00,
2013-04-15 04:40:00,63.0,43.5,28.20,South,170,0.0,0.0,49,0.00,,---,0.00,VWS V13.01,2013-04-15 11:40:00,
2013-04-15 04:45:00,62.8,43.9,28.20,South,170,0.0,0.0,50,0.00,,---,0.00,VWS V13.01,2013-04-15 11:45:00,
2013-04-15 04:50:00,62.8,43.9,28.26,South,170,0.0,0.0,50,0.00,,---,0.00,VWS V13.01,2013-04-15 11:50:00,
2013-04-15 04:55:00,62.6,43.7,28.26,South,170,0.0,0.0,50,0.00,,---,0.00,VWS V13.01,2013-04-15 11:55:00,
2013-04-15 05:00:00,62.6,45.2,28.26,South,170,0.0,0.0,53,0.00,,---,0.00,VWS V13.01,2013-04-15 12:00:00,
2013-04-15 05:05:00,62.4,45.6,28.29,South,170,0.0,0.0,54,0.00,,---,0.00,VWS V13.01,2013-04-15 12:05:00,
2013-04-15 05:10:00,62.2,46.4,28.29,South,170,0.0,0.0,56,0.00,,---,0.00,VWS V13.01,2013-04-15 12:10:00,
2013-04-15 05:16:00,61.9,45.5,28.29,ENE,67,0.0,0.0,55,0.00,,---,0.00,VWS V13.01,2013-04-15 12:16:00,
2013-04-15 05:21:00,61.7,45.9,28.35,ENE,67,0.0,0.0,56,0.00,,---,0.00,VWS V13.01,2013-04-15 12:21:00,
2013-04-15 05:26:00,61.7,46.8,28.35,ENE,67,0.0,0.0,58,0.00,,---,0.00,VWS V13.01,2013-04-15 12:26:00,
2013-04-15 05:32:00,61.5,46.2,28.35,ENE,67,0.0,0.0,57,0.00,,---,0.00,VWS V13.01,2013-04-15 12:32:00,
2013-04-15 05:37:00,61.3,46.5,28.44,ENE,75,2.7,4.0,58,0.00,,---,0.00,VWS V13.01,2013-04-15 12:37:00,
2013-04-15 05:42:00,61.0,45.7,28.44,East,91,0.0,3.1,57,0.00,,---,0.00,VWS V13.01,2013-04-15 12:42:00,
2013-04-15 05:47:00,61.0,43.8,28.44,SSW,193,3.6,4.5,53,0.00,,---,0.00,VWS V13.01,2013-04-15 12:47:00,
2013-04-15 05:52:00,60.8,43.1,28.53,NNW,339,0.0,0.0,52,0.00,,---,0.00,VWS V13.01,2013-04-15 12:52:00,
2013-04-15 05:57:00,61.0,44.2,28.53,NNW,339,0.0,0.0,54,0.00,,---,0.00,VWS V13.01,2013-04-15 12:57:00,
2013-04-15 06:02:00,61.0,45.7,28.53,NNE,30,0.0,0.0,57,0.00,,---,0.00,VWS V13.01,2013-04-15 13:02:00,
2013-04-15 06:07:00,60.8,45.0,28.61,East,88,2.7,5.4,56,0.00,,---,0.00,VWS V13.01,2013-04-15 13:07:00,
2013-04-15 06:12:00,60.8,45.0,28.61,East,84,3.1,5.4,56,0.00,,---,0.00,VWS V13.01,2013-04-15 13:12:00,
2013-04-15 06:18:00,61.0,45.2,28.61,ESE,106,4.9,4.9,56,0.00,,---,0.00,VWS V13.01,2013-04-15 13:18:00,
2013-04-15 06:23:00,61.2,45.4,28.67,ESE,117,6.3,6.3,56,0.00,,---,0.00,VWS V13.01,2013-04-15 13:23:00,
2013-04-15 06:29:00,61.2,44.9,28.67,ESE,111,4.0,6.3,55,0.00,,---,0.00,VWS V13.01,2013-04-15 13:29:00,
2013-04-15 06:34:00,61.5,45.7,28.67,ESE,107,5.4,5.4,56,0.00,,---,0.00,VWS V13.01,2013-04-15 13:34:00,
2013-04-15 06:39:00,61.7,45.4,28.76,SE,126,5.4,5.4,55,0.00,,---,0.00,VWS V13.01,2013-04-15 13:39:00,
2013-04-15 06:44:00,61.9,45.5,28.76,East,91,3.1,6.3,55,0.00,,---,0.00,VWS V13.01,2013-04-15 13:44:00,
2013-04-15 06:49:00,62.1,45.7,28.76,SSE,152,0.0,0.0,55,0.00,,---,0.00,VWS V13.01,2013-04-15 13:49:00,
2013-04-15 06:54:00,62.2,46.8,28.79,SE,127,0.0,3.6,57,0.00,,---,0.00,VWS V13.01,2013-04-15 13:54:00,
2013-04-15 07:00:00,62.6,46.7,28.79,SSW,198,0.0,0.0,56,0.00,,---,0.00,VWS V13.01,2013-04-15 14:00:00,
2013-04-15 07:05:00,62.6,47.2,28.82,SSW,196,0.0,0.0,57,0.00,,---,0.00,VWS V13.01,2013-04-15 14:05:00,
2013-04-15 07:10:00,63.0,48.0,28.82,SSW,196,0.0,0.0,58,0.00,,---,0.00,VWS V13.01,2013-04-15 14:10:00,
2013-04-15 07:15:00,63.0,48.0,28.82,SSW,196,0.0,0.0,58,0.00,,---,0.00,VWS V13.01,2013-04-15 14:15:00,
2013-04-15 07:20:00,63.1,47.7,28.79,ENE,61,3.6,4.0,57,0.00,,---,0.00,VWS V13.01,2013-04-15 14:20:00,
2013-04-15 07:27:00,63.3,46.9,28.79,East,98,5.8,5.8,55,0.00,,---,0.00,VWS V13.01,2013-04-15 14:27:00,
2013-04-15 07:32:00,63.7,47.2,28.79,ESE,116,4.0,4.9,55,0.00,,---,0.00,VWS V13.01,2013-04-15 14:32:00,
2013-04-15 07:37:00,63.9,46.9,28.76,East,88,8.7,8.7,54,0.00,,---,0.00,VWS V13.01,2013-04-15 14:37:00,
2013-04-15 07:42:00,63.9,46.9,28.76,ESE,109,4.5,6.3,54,0.00,,---,0.00,VWS V13.01,2013-04-15 14:42:00,
2013-04-15 07:47:00,64.0,47.1,28.76,East,97,5.4,6.3,54,0.00,,---,0.00,VWS V13.01,2013-04-15 14:47:00,
2013-04-15 07:53:00,64.4,47.4,28.73,East,96,3.1,4.0,54,0.00,,---,0.00,VWS V13.01,2013-04-15 14:53:00,
2013-04-15 07:58:00,64.8,47.8,28.73,East,82,0.0,6.3,54,0.00,,---,0.00,VWS V13.01,2013-04-15 14:58:00,
2013-04-15 08:03:00,64.9,47.4,28.73,East,93,3.6,4.0,53,0.00,,---,0.00,VWS V13.01,2013-04-15 15:03:00,
2013-04-15 08:09:00,65.1,48.1,28.70,East,95,0.0,3.6,54,0.00,,---,0.00,VWS V13.01,2013-04-15 15:09:00,
2013-04-15 08:14:00,65.5,47.9,28.70,SSW,201,0.0,4.0,53,0.00,,---,0.00,VWS V13.01,2013-04-15 15:14:00,
2013-04-15 08:19:00,65.7,47.6,28.70,SE,145,8.7,8.7,52,0.00,,---,0.00,VWS V13.01,2013-04-15 15:19:00,
2013-04-15 08:24:00,65.8,47.2,28.67,ESE,117,3.6,8.7,51,0.00,,---,0.00,VWS V13.01,2013-04-15 15:24:00,
2013-04-15 08:30:00,66.0,46.9,28.67,South,188,8.1,10.1,50,0.00,,---,0.00,VWS V13.01,2013-04-15 15:30:00,
2013-04-15 08:35:00,66.4,45.6,28.61,South,171,3.1,8.1,47,0.00,,---,0.00,VWS V13.01,2013-04-15 15:35:00,
2013-04-15 08:41:00,66.6,45.7,28.61,South,180,7.6,15.0,47,0.00,,---,0.00,VWS V13.01,2013-04-15 15:41:00,
2013-04-15 08:46:00,66.7,45.3,28.61,South,186,5.4,13.2,46,0.00,,---,0.00,VWS V13.01,2013-04-15 15:46:00,
2013-04-15 08:52:00,66.9,44.9,28.50,SSW,192,4.0,8.3,45,0.00,,---,0.00,VWS V13.01,2013-04-15 15:52:00,
2013-04-15 08:57:00,67.1,45.7,28.50,SW,218,8.1,13.2,46,0.00,,---,0.00,VWS V13.01,2013-04-15 15:57:00,
2013-04-15 09:02:00,67.3,45.2,28.50,South,180,11.0,11.0,45,0.00,,---,0.00,VWS V13.01,2013-04-15 16:02:00,
2013-04-15 09:08:00,67.5,44.8,28.41,SE,144,8.7,8.7,44,0.00,,---,0.00,VWS V13.01,2013-04-15 16:08:00,
2013-04-15 09:13:00,67.6,45.0,28.41,SSW,203,8.3,10.1,44,0.00,,---,0.00,VWS V13.01,2013-04-15 16:13:00,
2013-04-15 09:18:00,67.8,45.1,28.41,SSW,199,7.6,9.6,44,0.00,,---,0.00,VWS V13.01,2013-04-15 16:18:00,
2013-04-15 09:23:00,68.0,45.3,28.32,SSE,168,12.3,12.3,44,0.00,,---,0.00,VWS V13.01,2013-04-15 16:23:00,
2013-04-15 09:28:00,68.2,44.9,28.32,SW,227,3.6,13.2,43,0.00,,---,0.00,VWS V13.01,2013-04-15 16:28:00,
2013-04-15 09:34:00,68.4,45.0,28.32,SSE,149,5.8,8.7,43,0.00,,---,0.00,VWS V13.01,2013-04-15 16:34:00,
2013-04-15 09:39:00,68.7,45.3,28.26,ESE,123,4.9,5.8,43,0.00,,---,0.00,VWS V13.01,2013-04-15 16:39:00,
2013-04-15 09:45:00,68.9,44.9,28.26,SE,137,5.8,8.1,42,0.00,,---,0.00,VWS V13.01,2013-04-15 16:45:00,
2013-04-15 09:50:00,69.1,45.0,28.14,SSW,194,3.6,10.1,42,0.00,,---,0.00,VWS V13.01,2013-04-15 16:50:00,
2013-04-15 09:56:00,69.3,45.2,28.14,SSW,194,6.3,12.3,42,0.00,,---,0.00,VWS V13.01,2013-04-15 16:56:00,
2013-04-15 10:01:00,69.4,45.4,28.14,SE,132,3.1,11.0,42,0.00,,---,0.00,VWS V13.01,2013-04-15 17:01:00,
2013-04-15 10:06:00,69.6,44.2,28.08,SSW,199,3.6,8.7,40,0.00,,---,0.00,VWS V13.01,2013-04-15 17:06:00,
2013-04-15 10:11:00,70.0,44.6,28.08,South,190,6.3,10.1,40,0.00,,---,0.00,VWS V13.01,2013-04-15 17:11:00,
2013-04-15 10:16:00,70.2,44.1,28.08,SW,218,8.1,8.1,39,0.00,,---,0.00,VWS V13.01,2013-04-15 17:16:00,
2013-04-15 10:21:00,70.3,44.2,27.99,South,183,10.1,10.1,39,0.00,,---,0.00,VWS V13.01,2013-04-15 17:21:00,
2013-04-15 10:22:00,70.3,43.5,27.99,SSE,165,8.3,11.0,38,0.00,,---,0.00,VWS V13.01,2013-04-15 17:22:00,
2013-04-15 10:23:00,70.5,43.7,27.99,South,183,10.1,11.0,38,0.00,,---,0.00,VWS V13.01,2013-04-15 17:23:00,
2013-04-15 10:29:00,70.9,44.0,27.99,SE,136,5.4,11.0,38,0.00,,---,0.00,VWS V13.01,2013-04-15 17:29:00,
2013-04-15 10:34:00,71.1,43.5,27.99,SSE,160,8.7,13.2,37,0.00,,---,0.00,VWS V13.01,2013-04-15 17:34:00,
2013-04-15 10:40:00,71.2,43.7,27.96,SW,226,8.3,15.4,37,0.00,,---,0.00,VWS V13.01,2013-04-15 17:40:00,
2013-04-15 10:45:00,71.4,43.1,27.96,SSE,160,6.3,10.5,36,0.00,,---,0.00,VWS V13.01,2013-04-15 17:45:00,
2013-04-15 10:50:00,71.8,42.7,27.91,WSW,239,8.3,10.5,35,0.00,,---,0.00,VWS V13.01,2013-04-15 17:50:00,
2013-04-15 10:55:00,72.0,42.8,27.91,SSW,199,8.7,11.0,35,0.00,,---,0.00,VWS V13.01,2013-04-15 17:55:00,
2013-04-15 11:00:00,72.1,43.0,27.91,SSW,195,7.6,13.2,35,0.00,,---,0.00,VWS V13.01,2013-04-15 18:00:00,
2013-04-15 11:06:00,72.5,42.6,27.85,SSE,159,8.1,14.5,34,0.00,,---,0.00,VWS V13.01,2013-04-15 18:06:00,
2013-04-15 11:11:00,72.5,43.3,27.85,South,185,12.8,12.8,35,0.00,,---,0.00,VWS V13.01,2013-04-15 18:11:00,
2013-04-15 11:16:00,72.9,42.9,27.85,SSE,160,11.0,12.8,34,0.00,,---,0.00,VWS V13.01,2013-04-15 18:16:00,
2013-04-15 11:21:00,73.0,43.0,27.79,SSE,155,14.5,15.4,34,0.00,,---,0.00,VWS V13.01,2013-04-15 18:21:00,
2013-04-15 11:27:00,73.2,43.2,27.79,South,178,9.2,16.3,34,0.00,,---,0.00,VWS V13.01,2013-04-15 18:27:00,
2013-04-15 11:29:00,73.2,43.2,27.79,SSW,202,14.5,16.3,34,0.00,,---,0.00,VWS V13.01,2013-04-15 18:29:00,
2013-04-15 11:30:00,73.2,43.2,27.79,SSE,166,9.6,15.0,34,0.00,,---,0.00,VWS V13.01,2013-04-15 18:30:00,
2013-04-15 11:31:00,73.2,43.2,27.79,SSE,165,15.4,15.4,34,0.00,,---,0.00,VWS V13.01,2013-04-15 18:31:00,
2013-04-15 11:33:00,73.4,43.3,27.79,SSW,192,5.8,18.8,34,0.00,,---,0.00,VWS V13.01,2013-04-15 18:33:00,
2013-04-15 11:39:00,73.6,42.7,27.73,SSW,211,11.0,15.0,33,0.00,,---,0.00,VWS V13.01,2013-04-15 18:39:00,
2013-04-15 11:44:00,73.9,43.0,27.73,South,184,10.1,13.2,33,0.00,,---,0.00,VWS V13.01,2013-04-15 18:44:00,
2013-04-15 11:49:00,74.1,43.2,27.73,South,185,5.4,15.4,33,0.00,,---,0.00,VWS V13.01,2013-04-15 18:49:00,
2013-04-15 11:54:00,74.1,43.2,27.67,SSE,166,7.6,8.3,33,0.00,,---,0.00,VWS V13.01,2013-04-15 18:54:00,
2013-04-15 11:59:00,74.3,43.4,27.67,South,187,7.6,14.5,33,0.00,,---,0.00,VWS V13.01,2013-04-15 18:59:00,
2013-04-15 12:05:00,74.3,43.4,27.67,SSW,206,6.3,15.4,33,0.00,,---,0.00,VWS V13.01,2013-04-15 19:05:00,
2013-04-15 12:10:00,74.5,42.7,27.64,South,173,8.7,16.8,32,0.00,,---,0.00,VWS V13.01,2013-04-15 19:10:00,
2013-04-15 12:15:00,74.7,42.9,27.64,SE,128,5.8,15.0,32,0.00,,---,0.00,VWS V13.01,2013-04-15 19:15:00,
2013-04-15 12:20:00,74.8,43.0,27.58,SSW,193,15.4,15.4,32,0.00,,---,0.00,VWS V13.01,2013-04-15 19:20:00,
2013-04-15 12:26:00,75.0,43.2,27.58,South,183,8.1,12.3,32,0.00,,---,0.00,VWS V13.01,2013-04-15 19:26:00,
2013-04-15 12:31:00,75.2,42.5,27.58,SW,231,5.8,11.0,31,0.00,,---,0.00,VWS V13.01,2013-04-15 19:31:00,
2013-04-15 12:36:00,75.0,42.4,27.55,South,190,6.3,10.5,31,0.00,,---,0.00,VWS V13.01,2013-04-15 19:36:00,
2013-04-15 12:42:00,75.2,42.5,27.55,SSW,210,5.4,12.8,31,0.00,,---,0.00,VWS V13.01,2013-04-15 19:42:00,
2013-04-15 12:47:00,75.2,43.3,27.55,South,174,8.1,22.4,32,0.00,,---,0.00,VWS V13.01,2013-04-15 19:47:00,
2013-04-15 12:53:00,75.2,43.3,27.49,South,180,5.8,12.8,32,0.00,,---,0.00,VWS V13.01,2013-04-15 19:53:00,
2013-04-15 12:57:00,75.6,42.8,27.49,WSW,243,10.1,13.2,31,0.00,,---,0.00,VWS V13.01,2013-04-15 19:57:00,
2013-04-15 12:58:00,75.6,42.8,27.49,SW,220,11.0,13.2,31,0.00,,---,0.00,VWS V13.01,2013-04-15 19:58:00,
2013-04-15 13:02:00,75.7,43.0,27.49,SSW,192,8.1,12.3,31,0.00,,---,0.00,VWS V13.01,2013-04-15 20:02:00,
2013-04-15 13:03:00,75.7,43.0,27.49,South,186,5.4,10.1,31,0.00,,---,0.00,VWS V13.01,2013-04-15 20:03:00,
2013-04-15 13:04:00,75.7,43.0,27.49,SW,222,8.7,10.5,31,0.00,,---,0.00,VWS V13.01,2013-04-15 20:04:00,
2013-04-15 13:08:00,75.7,43.0,27.46,South,186,14.1,14.1,31,0.00,,---,0.00,VWS V13.01,2013-04-15 20:08:00,
2013-04-15 13:14:00,75.9,43.1,27.46,SSW,207,10.1,15.0,31,0.00,,---,0.00,VWS V13.01,2013-04-15 20:14:00,
2013-04-15 13:19:00,75.9,43.1,27.46,South,179,12.8,15.4,31,0.00,,---,0.00,VWS V13.01,2013-04-15 20:19:00,
2013-04-15 13:24:00,75.9,43.1,27.43,South,174,5.4,11.0,31,0.00,,---,0.00,VWS V13.01,2013-04-15 20:24:00,
2013-04-15 13:29:00,76.1,43.3,27.43,South,187,8.1,18.8,31,0.00,,---,0.00,VWS V13.01,2013-04-15 20:29:00,
2013-04-15 13:35:00,76.3,43.5,27.40,SW,226,11.9,11.9,31,0.00,,---,0.00,VWS V13.01,2013-04-15 20:35:00,
2013-04-15 13:40:00,76.3,43.5,27.40,WSW,246,8.7,15.4,31,0.00,,---,0.00,VWS V13.01,2013-04-15 20:40:00,
2013-04-15 13:45:00,76.5,43.6,27.40,SSW,201,8.1,15.0,31,0.00,,---,0.00,VWS V13.01,2013-04-15 20:45:00,
2013-04-15 13:50:00,76.5,43.6,27.37,SSE,168,10.1,15.0,31,0.00,,---,0.00,VWS V13.01,2013-04-15 20:50:00,
2013-04-15 13:55:00,76.3,43.5,27.37,South,177,7.2,14.1,31,0.00,,---,0.00,VWS V13.01,2013-04-15 20:55:00,
2013-04-15 14:00:00,76.5,43.6,27.37,SSW,196,10.5,16.3,31,0.00,,---,0.00,VWS V13.01,2013-04-15 21:00:00,
2013-04-15 14:05:00,76.5,43.6,27.34,ESE,116,8.1,15.9,31,0.00,,---,0.00,VWS V13.01,2013-04-15 21:05:00,
2013-04-15 14:11:00,76.6,43.8,27.34,SSW,202,14.1,15.0,31,0.00,,---,0.00,VWS V13.01,2013-04-15 21:11:00,
2013-04-15 14:16:00,76.6,43.8,27.34,SSE,163,10.1,11.9,31,0.00,,---,0.00,VWS V13.01,2013-04-15 21:16:00,
2013-04-15 14:21:00,76.6,43.8,27.32,SSW,206,14.5,23.3,31,0.00,,---,0.00,VWS V13.01,2013-04-15 21:21:00,
2013-04-15 14:27:00,76.6,43.8,27.32,SSW,197,3.1,13.2,31,0.00,,---,0.00,VWS V13.01,2013-04-15 21:27:00,
2013-04-15 14:32:00,76.6,44.6,27.32,SW,214,12.8,12.8,32,0.00,,---,0.00,VWS V13.01,2013-04-15 21:32:00,
2013-04-15 14:37:00,77.4,43.5,27.29,South,187,8.1,15.0,30,0.00,,---,0.00,VWS V13.01,2013-04-15 21:37:00,
2013-04-15 14:42:00,77.2,43.4,27.29,South,170,6.3,10.5,30,0.00,,---,0.00,VWS V13.01,2013-04-15 21:42:00,
2013-04-15 14:48:00,77.4,44.4,27.29,South,180,8.3,12.3,31,0.00,,---,0.00,VWS V13.01,2013-04-15 21:48:00,
2013-04-15 14:53:00,77.5,43.7,27.26,SW,235,13.2,16.3,30,0.00,,---,0.00,VWS V13.01,2013-04-15 21:53:00,
2013-04-15 14:58:00,77.4,43.5,27.26,SSE,149,8.3,12.3,30,0.00,,---,0.00,VWS V13.01,2013-04-15 21:58:00,
2013-04-15 15:03:00,77.5,41.0,27.26,South,189,11.0,11.4,27,0.00,,---,0.00,VWS V13.01,2013-04-15 22:03:00,
2013-04-15 15:08:00,77.9,41.3,27.26,South,187,12.8,12.8,27,0.00,,---,0.00,VWS V13.01,2013-04-15 22:08:00,
2013-04-15 15:14:00,77.5,43.7,27.26,SE,140,12.8,12.8,30,0.00,,---,0.00,VWS V13.01,2013-04-15 22:14:00,
2013-04-15 15:19:00,78.1,38.4,27.26,South,190,11.0,15.0,24,0.00,,---,0.00,VWS V13.01,2013-04-15 22:19:00,
2013-04-15 15:24:00,77.7,39.1,27.23,South,191,8.7,16.8,25,0.00,,---,0.00,VWS V13.01,2013-04-15 22:24:00,
2013-04-15 15:29:00,77.7,41.1,27.23,South,189,11.0,11.0,27,0.00,,---,0.00,VWS V13.01,2013-04-15 22:29:00,
2013-04-15 15:35:00,77.5,40.0,27.20,South,186,10.1,15.0,26,0.00,,---,0.00,VWS V13.01,2013-04-15 22:35:00,
2013-04-15 15:40:00,77.4,39.8,27.20,SSW,195,10.1,13.2,26,0.00,,---,0.00,VWS V13.01,2013-04-15 22:40:00,
2013-04-15 15:45:00,77.2,40.7,27.20,South,180,12.3,15.4,27,0.00,,---,0.00,VWS V13.01,2013-04-15 22:45:00,
2013-04-15 15:51:00,77.2,39.7,27.20,SSW,208,8.7,13.2,26,0.00,,---,0.00,VWS V13.01,2013-04-15 22:51:00,
2013-04-15 15:56:00,77.4,38.8,27.20,SSW,193,11.4,13.2,25,0.00,,---,0.00,VWS V13.01,2013-04-15 22:56:00,
2013-04-15 16:01:00,77.4,36.7,27.20,West,266,14.5,14.5,23,0.00,,---,0.00,VWS V13.01,2013-04-15 23:01:00,
2013-04-15 16:06:00,77.5,36.8,27.20,SSW,210,10.1,15.4,23,0.00,,---,0.00,VWS V13.01,2013-04-15 23:06:00,
2013-04-15 16:12:00,77.4,36.7,27.20,SW,232,10.5,15.4,23,0.00,,---,0.00,VWS V13.01,2013-04-15 23:12:00,
2013-04-15 16:17:00,77.5,37.9,27.20,SSW,193,13.2,15.0,24,0.00,,---,0.00,VWS V13.01,2013-04-15 23:17:00,
2013-04-15 16:23:00,77.4,37.8,27.17,SSE,167,7.6,13.2,24,0.00,,---,0.00,VWS V13.01,2013-04-15 23:23:00,
2013-04-15 16:28:00,77.0,39.5,27.17,SSE,162,8.1,15.4,26,0.00,,---,0.00,VWS V13.01,2013-04-15 23:28:00,
2013-04-15 16:33:00,77.0,37.5,27.17,South,173,16.3,16.3,24,0.00,,---,0.00,VWS V13.01,2013-04-15 23:33:00,
2013-04-15 16:38:00,77.2,36.5,27.17,SW,229,8.1,9.2,23,0.00,,---,0.00,VWS V13.01,2013-04-15 23:38:00,
2013-04-15 16:44:00,77.2,36.5,27.17,South,177,8.3,12.8,23,0.00,,---,0.00,VWS V13.01,2013-04-15 23:44:00,
2013-04-15 16:49:00,77.0,37.5,27.17,SSW,194,10.1,13.2,24,0.00,,---,0.00,VWS V13.01,2013-04-15 23:49:00,
2013-04-15 16:54:00,76.8,38.4,27.20,South,171,10.1,13.2,25,0.00,,---,0.00,VWS V13.01,2013-04-15 23:54:00,
2013-04-15 16:59:00,76.6,36.1,27.20,SW,224,3.1,11.4,23,0.00,,---,0.00,VWS V13.01,2013-04-15 23:59:00,
2013-04-15 17:04:00,77.0,34.1,27.20,South,177,12.3,14.1,21,0.00,,---,0.00,VWS V13.01,2013-04-16 00:04:00,
2013-04-15 17:09:00,76.8,37.3,27.20,SW,229,8.3,14.1,24,0.00,,---,0.00,VWS V13.01,2013-04-16 00:09:00,
2013-04-15 17:15:00,76.8,35.1,27.20,South,186,15.4,18.8,22,0.00,,---,0.00,VWS V13.01,2013-04-16 00:15:00,
2013-04-15 17:20:00,76.6,35.0,27.17,SSW,198,4.5,11.0,22,0.00,,---,0.00,VWS V13.01,2013-04-16 00:20:00,
2013-04-15 17:26:00,76.5,36.0,27.17,South,191,8.3,12.3,23,0.00,,---,0.00,VWS V13.01,2013-04-16 00:26:00,
2013-04-15 17:31:00,76.3,36.9,27.17,South,181,7.6,10.1,24,0.00,,---,0.00,VWS V13.01,2013-04-16 00:31:00,
2013-04-15 17:36:00,76.1,36.7,27.20,SSW,203,8.1,12.8,24,0.00,,---,0.00,VWS V13.01,2013-04-16 00:36:00,
2013-04-15 17:41:00,75.9,35.5,27.20,SW,233,13.2,13.2,23,0.00,,---,0.00,VWS V13.01,2013-04-16 00:41:00,
2013-04-15 17:46:00,75.9,35.5,27.20,SSW,208,4.9,10.5,23,0.00,,---,0.00,VWS V13.01,2013-04-16 00:46:00,
2013-04-15 17:51:00,75.6,37.3,27.20,South,186,8.3,13.2,25,0.00,,---,0.00,VWS V13.01,2013-04-16 00:51:00,
2013-04-15 17:57:00,75.4,37.2,27.20,SSW,197,7.6,10.1,25,0.00,,---,0.00,VWS V13.01,2013-04-16 00:57:00,
2013-04-15 18:02:00,75.2,38.0,27.20,South,176,5.4,9.6,26,0.00,,---,0.00,VWS V13.01,2013-04-16 01:02:00,
2013-04-15 18:08:00,75.0,38.8,27.20,SSW,196,7.6,12.8,27,0.00,,---,0.00,VWS V13.01,2013-04-16 01:08:00,
2013-04-15 18:13:00,74.7,39.4,27.20,South,175,8.3,12.8,28,0.00,,---,0.00,VWS V13.01,2013-04-16 01:13:00,
2013-04-15 18:18:00,74.5,41.0,27.20,SW,224,8.1,11.0,30,0.00,,---,0.00,VWS V13.01,2013-04-16 01:18:00,
2013-04-15 18:23:00,74.3,40.9,27.17,SSW,198,8.3,11.4,30,0.00,,---,0.00,VWS V13.01,2013-04-16 01:23:00,
2013-04-15 18:29:00,73.9,41.4,27.17,South,181,8.7,11.4,31,0.00,,---,0.00,VWS V13.01,2013-04-16 01:29:00,
2013-04-15 18:34:00,73.8,41.3,27.17,SSE,163,5.8,12.8,31,0.00,,---,0.00,VWS V13.01,2013-04-16 01:34:00,
2013-04-15 18:39:00,73.6,41.1,27.17,South,180,5.8,10.5,31,0.00,,---,0.00,VWS V13.01,2013-04-16 01:39:00,
2013-04-15 18:44:00,73.2,40.8,27.17,SSW,197,8.1,12.3,31,0.00,,---,0.00,VWS V13.01,2013-04-16 01:44:00,
2013-04-15 18:50:00,73.2,40.8,27.20,SSW,197,7.6,12.8,31,0.00,,---,0.00,VWS V13.01,2013-04-16 01:50:00,
2013-04-15 18:55:00,72.9,40.5,27.20,SSW,199,5.8,8.3,31,0.00,,---,0.00,VWS V13.01,2013-04-16 01:55:00,
2013-04-15 19:01:00,72.7,40.3,27.20,SSW,207,3.1,11.0,31,0.00,,---,0.00,VWS V13.01,2013-04-16 02:01:00,
2013-04-15 19:06:00,72.5,40.2,27.17,South,175,5.8,12.8,31,0.00,,---,0.00,VWS V13.01,2013-04-16 02:06:00,
2013-04-15 19:11:00,72.3,40.0,27.17,SSW,204,8.3,10.5,31,0.00,,---,0.00,VWS V13.01,2013-04-16 02:11:00,
2013-04-15 19:17:00,72.1,39.9,27.17,SSW,192,12.3,12.3,31,0.00,,---,0.00,VWS V13.01,2013-04-16 02:17:00,
2013-04-15 19:22:00,72.0,40.5,27.20,SSW,198,5.8,8.1,32,0.00,,---,0.00,VWS V13.01,2013-04-16 02:22:00,
2013-04-15 19:27:00,71.8,39.5,27.20,SSE,158,4.9,6.3,31,0.00,,---,0.00,VWS V13.01,2013-04-16 02:27:00,
2013-04-15 19:32:00,71.8,40.4,27.20,SW,221,6.3,11.0,32,0.00,,---,0.00,VWS V13.01,2013-04-16 02:32:00,
2013-04-15 19:38:00,71.6,40.2,27.20,South,172,3.1,10.5,32,0.00,,---,0.00,VWS V13.01,2013-04-16 02:38:00,
2013-04-15 19:43:00,71.6,39.4,27.20,WSW,254,4.5,10.5,31,0.00,,---,0.00,VWS V13.01,2013-04-16 02:43:00,
2013-04-15 19:48:00,71.6,38.6,27.20,South,175,7.6,8.1,30,0.00,,---,0.00,VWS V13.01,2013-04-16 02:48:00,
2013-04-15 19:53:00,71.4,39.2,27.20,WSW,255,8.7,8.7,31,0.00,,---,0.00,VWS V13.01,2013-04-16 02:53:00,
2013-04-15 19:58:00,71.4,40.0,27.20,SW,221,4.0,13.2,32,0.00,,---,0.00,VWS V13.01,2013-04-16 02:58:00,
2013-04-15 20:03:00,71.2,39.9,27.20,South,185,3.6,8.1,32,0.00,,---,0.00,VWS V13.01,2013-04-16 03:03:00,
2013-04-15 20:09:00,71.2,39.9,27.20,SW,214,8.1,8.7,32,0.00,,---,0.00,VWS V13.01,2013-04-16 03:09:00,
2013-04-15 20:14:00,71.2,39.9,27.20,SSW,201,5.4,6.3,32,0.00,,---,0.00,VWS V13.01,2013-04-16 03:14:00,
2013-04-15 20:19:00,71.1,39.7,27.20,SW,236,3.6,4.0,32,0.00,,---,0.00,VWS V13.01,2013-04-16 03:19:00,
2013-04-15 20:25:00,70.9,39.6,27.23,WNW,282,0.0,6.3,32,0.00,,---,0.00,VWS V13.01,2013-04-16 03:25:00,
2013-04-15 20:30:00,70.9,40.4,27.23,South,189,5.8,7.2,33,0.00,,---,0.00,VWS V13.01,2013-04-16 03:30:00,
2013-04-15 20:35:00,70.5,40.1,27.23,SW,215,0.0,6.3,33,0.00,,---,0.00,VWS V13.01,2013-04-16 03:35:00,
2013-04-15 20:40:00,70.5,40.8,27.23,SSW,199,0.0,0.0,34,0.00,,---,0.00,VWS V13.01,2013-04-16 03:40:00,
2013-04-15 20:45:00,70.3,41.4,27.23,SSW,199,0.0,0.0,35,0.00,,---,0.00,VWS V13.01,2013-04-16 03:45:00,
2013-04-15 20:50:00,70.2,42.0,27.23,SSW,199,0.0,0.0,36,0.00,,---,0.00,VWS V13.01,2013-04-16 03:50:00,
2013-04-15 20:56:00,70.0,43.2,27.23,SW,228,0.0,0.0,38,0.00,,---,0.00,VWS V13.01,2013-04-16 03:56:00,
2013-04-15 21:00:00,69.8,43.8,27.23,SW,228,0.0,0.0,39,0.00,,---,0.00,VWS V13.01,2013-04-16 04:00:00,
2013-04-15 21:02:00,69.8,44.4,27.23,SW,228,0.0,0.0,40,0.00,,---,0.00,VWS V13.01,2013-04-16 04:02:00,
2013-04-15 21:03:00,69.8,43.8,27.23,SW,228,0.0,0.0,39,0.00,,---,0.00,VWS V13.01,2013-04-16 04:03:00,
2013-04-15 21:09:00,69.6,43.6,27.26,East,101,0.0,5.8,39,0.00,,---,0.00,VWS V13.01,2013-04-16 04:09:00,
2013-04-15 21:14:00,69.4,44.1,27.26,South,189,0.0,0.0,40,0.00,,---,0.00,VWS V13.01,2013-04-16 04:14:00,
2013-04-15 21:19:00,69.3,45.2,27.26,South,189,0.0,0.0,42,0.00,,---,0.00,VWS V13.01,2013-04-16 04:19:00,
2013-04-15 21:24:00,69.3,45.2,27.26,SW,215,3.1,4.0,42,0.00,,---,0.00,VWS V13.01,2013-04-16 04:24:00,
2013-04-15 21:29:00,69.1,45.0,27.26,SSW,201,5.4,5.8,42,0.00,,---,0.00,VWS V13.01,2013-04-16 04:29:00,
2013-04-15 21:35:00,69.1,44.4,27.29,SSW,197,4.0,6.3,41,0.00,,---,0.00,VWS V13.01,2013-04-16 04:35:00,
2013-04-15 21:40:00,69.1,45.0,27.29,SSW,199,4.9,6.3,42,0.00,,---,0.00,VWS V13.01,2013-04-16 04:40:00,
2013-04-15 21:45:00,68.9,44.2,27.29,SW,222,8.7,8.7,41,0.00,,---,0.00,VWS V13.01,2013-04-16 04:45:00,
2013-04-15 21:51:00,68.9,43.6,27.29,South,185,6.3,8.1,40,0.00,,---,0.00,VWS V13.01,2013-04-16 04:51:00,
2013-04-15 21:56:00,68.9,43.6,27.29,SW,221,5.8,8.1,40,0.00,,---,0.00,VWS V13.01,2013-04-16 04:56:00,
2013-04-15 22:01:00,68.9,44.2,27.29,SSW,193,7.6,8.3,41,0.00,,---,0.00,VWS V13.01,2013-04-16 05:01:00,
2013-04-15 22:06:00,68.9,44.9,27.29,South,178,5.8,8.3,42,0.00,,---,0.00,VWS V13.01,2013-04-16 05:06:00,
2013-04-15 22:12:00,68.7,44.1,27.29,South,179,4.0,8.3,41,0.00,,---,0.00,VWS V13.01,2013-04-16 05:12:00,
2013-04-15 22:17:00,68.7,44.1,27.29,South,183,6.3,8.3,41,0.00,,---,0.00,VWS V13.01,2013-04-16 05:17:00,
2013-04-15 22:23:00,68.7,43.5,27.32,SSW,193,7.6,7.6,40,0.00,,---,0.00,VWS V13.01,2013-04-16 05:23:00,
2013-04-15 22:28:00,68.5,43.3,27.32,South,180,7.2,7.2,40,0.00,,---,0.00,VWS V13.01,2013-04-16 05:28:00,
2013-04-15 22:33:00,68.5,42.6,27.32,SSW,211,4.0,8.7,39,0.00,,---,0.00,VWS V13.01,2013-04-16 05:33:00,
2013-04-15 22:38:00,68.5,42.0,27.32,South,183,4.0,5.8,38,0.00,,---,0.00,VWS V13.01,2013-04-16 05:38:00,
2013-04-15 22:44:00,68.5,42.6,27.32,South,186,5.4,7.6,39,0.00,,---,0.00,VWS V13.01,2013-04-16 05:44:00,
2013-04-15 22:49:00,68.4,42.5,27.32,SSW,210,0.0,5.4,39,0.00,,---,0.00,VWS V13.01,2013-04-16 05:49:00,
2013-04-15 22:54:00,68.4,42.5,27.34,SW,226,2.7,8.1,39,0.00,,---,0.00,VWS V13.01,2013-04-16 05:54:00,
2013-04-15 22:59:00,68.2,41.6,27.34,SW,226,3.1,4.9,38,0.00,,---,0.00,VWS V13.01,2013-04-16 05:59:00,
2013-04-15 23:04:00,68.2,41.6,27.34,SSW,196,5.8,10.5,38,0.00,,---,0.00,VWS V13.01,2013-04-16 06:04:00,
2013-04-15 23:09:00,68.2,41.6,27.37,SSW,196,0.0,6.3,38,0.00,,---,0.00,VWS V13.01,2013-04-16 06:09:00,
2013-04-15 23:15:00,68.0,41.5,27.37,SW,235,8.1,8.1,38,0.00,,---,0.00,VWS V13.01,2013-04-16 06:15:00,
2013-04-15 23:20:00,68.0,41.5,27.37,SW,215,3.1,8.1,38,0.00,,---,0.00,VWS V13.01,2013-04-16 06:20:00,
2013-04-15 23:25:00,67.8,41.3,27.37,WSW,255,5.8,6.3,38,0.00,,---,0.00,VWS V13.01,2013-04-16 06:25:00,
2013-04-15 23:30:00,67.8,41.3,27.37,SSE,163,3.6,6.3,38,0.00,,---,0.00,VWS V13.01,2013-04-16 06:30:00,
2013-04-15 23:35:00,67.8,41.3,27.40,SW,231,2.7,8.7,38,0.00,,---,0.00,VWS V13.01,2013-04-16 06:35:00,
2013-04-15 23:41:00,67.8,42.0,27.40,SSW,200,2.7,3.6,39,0.00,,---,0.00,VWS V13.01,2013-04-16 06:41:00,
2013-04-15 23:46:00,67.6,41.2,27.40,SW,220,0.0,6.3,38,0.00,,---,0.00,VWS V13.01,2013-04-16 06:46:00,
2013-04-15 23:51:00,67.6,41.8,27.43,SSW,192,0.0,4.0,39,0.00,,---,0.00,VWS V13.01,2013-04-16 06:51:00,
2013-04-15 23:57:00,67.5,42.3,27.43,SSW,199,0.0,3.1,40,0.00,,---,0.00,VWS V13.01,2013-04-16 06:57:00,